Time;durP1;ratioP1;P1;durP2;ratioP2;P2;SDS_P1;SDS_P2;PMS_P1;PMS_P2;Temp;Humidity;BMP_temperature;BMP_pressure;BME280_temperature;BME280_humidity;BME280_pressure;Samples;Min_cycle;Max_cycle;Signal;HPM_P1;HPM_P2
2021/08/16 05:53:15;;;;;;;11.57;5.17;;;;;;;;;;10527890;28;20436;-84
2021/08/16 05:58:16;;;;;;;12.50;5.20;;;;;;;;;;10514294;28;20032;-82
2021/08/16 06:03:17;;;;;;;9.73;4.68;;;;;;;;;;10510899;28;20029;-82
2021/08/16 06:08:18;;;;;;;7.95;4.13;;;;;;;;;;10504769;28;20360;-84
2021/08/16 06:13:19;;;;;;;12.00;5.10;;;;;;;;;;10504623;28;20025;-83
2021/08/16 06:18:20;;;;;;;11.48;5.13;;;;;;;;;;10514267;28;20017;-82
2021/08/16 06:23:21;;;;;;;12.27;5.68;;;;;;;;;;10513152;28;20024;-82
2021/08/16 06:28:22;;;;;;;12.68;4.90;;;;;;;;;;10511546;28;20025;-82
2021/08/16 06:33:23;;;;;;;12.50;5.13;;;;;;;;;;10509927;28;20027;-82
2021/08/16 06:38:25;;;;;;;18.98;12.70;;;;;;;;;;10513124;28;20060;-82
2021/08/16 06:43:27;;;;;;;10.55;4.82;;;;;;;;;;10504600;28;20024;-83
2021/08/16 06:48:28;;;;;;;9.80;4.90;;;;;;;;;;10524181;28;20044;-84
2021/08/16 06:53:29;;;;;;;10.82;5.00;;;;;;;;;;10503175;28;20024;-82
2021/08/16 06:58:31;;;;;;;7.70;5.00;;;;;;;;;;10496511;28;20055;-83
2021/08/16 07:04:07;;;;;;;7.30;3.40;;;;;;;;;;10474941;28;20163;-86
2021/08/16 07:09:42;;;;;;;5.78;3.10;;;;;;;;;;10471386;28;20037;-85
2021/08/16 07:15:06;;;;;;;9.82;3.80;;;;;;;;;;10475143;28;20028;-84
2021/08/16 07:20:46;;;;;;;7.80;3.92;;;;;;;;;;10476744;28;20017;-83
2021/08/16 07:25:47;;;;;;;11.07;7.23;;;;;;;;;;10477040;28;20056;-87
2021/08/16 07:47:52;;;;;;;7.80;3.30;;;;;;;;;;10488007;22;20073;-81
2021/08/16 07:52:54;;;;;;;10.45;3.65;;;;;;;;;;10428912;28;20025;-83
2021/08/16 07:57:55;;;;;;;5.30;3.38;;;;;;;;;;10409775;28;20390;-81
2021/08/16 08:02:56;;;;;;;8.65;3.75;;;;;;;;;;10412580;28;20041;-84
2021/08/16 08:07:57;;;;;;;8.65;3.63;;;;;;;;;;10426129;28;20550;-83
2021/08/16 08:12:58;;;;;;;7.55;3.50;;;;;;;;;;10405277;28;20422;-83
2021/08/16 08:17:59;;;;;;;5.93;2.97;;;;;;;;;;10406746;28;20387;-83
2021/08/16 08:23:00;;;;;;;9.35;3.30;;;;;;;;;;10407477;28;20031;-83
2021/08/16 08:28:04;;;;;;;7.20;3.28;;;;;;;;;;10405960;28;20017;-82
2021/08/16 08:33:05;;;;;;;8.50;3.20;;;;;;;;;;10405571;28;20056;-83
2021/08/16 08:38:07;;;;;;;9.85;3.50;;;;;;;;;;10426406;28;20025;-82
2021/08/16 08:43:11;;;;;;;6.47;3.30;;;;;;;;;;10427080;28;20040;-83
2021/08/16 08:48:13;;;;;;;6.00;3.03;;;;;;;;;;10416052;28;20033;-84
2021/08/16 08:53:14;;;;;;;8.30;4.20;;;;;;;;;;10407249;28;20055;-85
2021/08/16 08:58:18;;;;;;;7.20;3.72;;;;;;;;;;10409405;28;20026;-84
2021/08/16 09:03:19;;;;;;;6.18;3.55;;;;;;;;;;10409421;28;20037;-82
2021/08/16 09:08:37;;;;;;;8.65;3.47;;;;;;;;;;10434622;28;20033;-86
2021/08/16 09:13:48;;;;;;;5.90;3.15;;;;;;;;;;10456320;28;20017;-82
2021/08/16 09:18:49;;;;;;;;;;;;;;;;;;10446920;28;20037;-83
2021/08/16 09:29:14;;;;;;;10.73;5.88;;;;;;;;;;10433029;28;19912;-82
2021/08/16 09:34:15;;;;;;;6.25;4.15;;;;;;;;;;10409604;28;20022;-84
2021/08/16 09:39:23;;;;;;;12.23;4.90;;;;;;;;;;10421929;28;20394;-83
2021/08/16 09:44:24;;;;;;;6.20;3.63;;;;;;;;;;10404049;28;20025;-83
2021/08/16 09:49:25;;;;;;;6.88;3.20;;;;;;;;;;10403254;28;20021;-84
2021/08/16 09:54:26;;;;;;;7.40;3.92;;;;;;;;;;10403351;28;20033;-84
2021/08/16 09:59:28;;;;;;;8.35;5.07;;;;;;;;;;10406518;28;20017;-83
2021/08/16 10:04:34;;;;;;;7.68;4.72;;;;;;;;;;10408312;28;20029;-84
2021/08/16 10:09:35;;;;;;;6.78;4.32;;;;;;;;;;10409698;28;20049;-82
2021/08/16 10:14:37;;;;;;;5.30;3.72;;;;;;;;;;10414148;28;20129;-82
2021/08/16 10:19:41;;;;;;;8.85;4.45;;;;;;;;;;10429602;28;20039;-83
2021/08/16 10:24:42;;;;;;;5.43;4.20;;;;;;;;;;10430734;28;20021;-83
2021/08/16 10:29:43;;;;;;;4.07;2.65;;;;;;;;;;10426463;28;20096;-79
2021/08/16 10:34:45;;;;;;;3.17;2.22;;;;;;;;;;10413041;28;20033;-81
2021/08/16 10:39:47;;;;;;;5.97;2.40;;;;;;;;;;10429449;28;20026;-80
2021/08/16 10:44:50;;;;;;;3.85;2.00;;;;;;;;;;10432364;28;20033;-80
2021/08/16 10:50:02;;;;;;;3.88;1.95;;;;;;;;;;10422803;28;20095;-80
2021/08/16 10:55:16;;;;;;;3.65;1.90;;;;;;;;;;10423581;28;20047;-80
2021/08/16 11:00:17;;;;;;;2.78;1.90;;;;;;;;;;10425261;28;20127;-81
2021/08/16 11:05:29;;;;;;;4.65;2.90;;;;;;;;;;10424058;28;20034;-81
2021/08/16 11:10:37;;;;;;;3.83;2.35;;;;;;;;;;10421803;28;20052;-80
2021/08/16 11:15:39;;;;;;;4.45;2.75;;;;;;;;;;10422009;28;20034;-80
2021/08/16 11:20:43;;;;;;;4.15;2.22;;;;;;;;;;10433284;28;20041;-84
2021/08/16 11:25:56;;;;;;;4.68;2.47;;;;;;;;;;10429218;28;20021;-84
2021/08/16 11:36:54;;;;;;;3.80;2.28;;;;;;;;;;10434907;28;20030;-84
2021/08/16 11:47:38;;;;;;;4.75;2.67;;;;;;;;;;10449060;28;20030;-85
2021/08/16 11:52:40;;;;;;;6.68;2.40;;;;;;;;;;10431568;28;20056;-84
2021/08/16 11:57:41;;;;;;;5.35;2.70;;;;;;;;;;10430351;28;20029;-84
2021/08/16 12:02:42;;;;;;;3.80;2.28;;;;;;;;;;10430312;28;20033;-84
2021/08/16 12:07:56;;;;;;;6.15;2.63;;;;;;;;;;10434917;28;20112;-84
2021/08/16 12:13:14;;;;;;;4.72;2.20;;;;;;;;;;10448824;28;20029;-84
2021/08/16 12:18:25;;;;;;;7.30;2.92;;;;;;;;;;10453506;28;20029;-83
2021/08/16 12:23:33;;;;;;;6.30;3.00;;;;;;;;;;10432690;28;20033;-83
2021/08/16 12:29:01;;;;;;;8.00;4.20;;;;;;;;;;10448978;28;20041;-83
2021/08/16 12:34:14;;;;;;;8.48;3.80;;;;;;;;;;10427772;28;20133;-82
2021/08/16 12:39:15;;;;;;;8.40;4.78;;;;;;;;;;10416129;28;20049;-83
2021/08/16 12:44:17;;;;;;;11.82;6.43;;;;;;;;;;10404259;28;20029;-83
2021/08/16 12:49:20;;;;;;;9.73;5.38;;;;;;;;;;10404369;28;20099;-87
2021/08/16 12:54:21;;;;;;;10.35;5.80;;;;;;;;;;10404499;28;20491;-82
2021/08/16 12:59:22;;;;;;;10.85;5.78;;;;;;;;;;10424977;28;20090;-84
2021/08/16 13:04:24;;;;;;;7.38;4.97;;;;;;;;;;10431313;28;20022;-85
2021/08/16 13:09:27;;;;;;;7.00;4.70;;;;;;;;;;10423526;28;20075;-83
2021/08/16 13:14:33;;;;;;;10.52;5.95;;;;;;;;;;10408028;28;20037;-83
2021/08/16 13:19:37;;;;;;;10.27;6.47;;;;;;;;;;10417902;28;20104;-82
2021/08/16 13:24:38;;;;;;;13.80;8.32;;;;;;;;;;10420369;28;20025;-81
2021/08/16 13:29:39;;;;;;;9.20;5.07;;;;;;;;;;10402059;28;20021;-80
2021/08/16 13:34:40;;;;;;;4.80;3.20;;;;;;;;;;10402420;28;20026;-81
2021/08/16 13:39:43;;;;;;;6.75;3.30;;;;;;;;;;10427678;28;20049;-82
2021/08/16 13:44:45;;;;;;;8.35;5.95;;;;;;;;;;10430388;23;20041;-82
2021/08/16 13:49:46;;;;;;;5.80;3.42;;;;;;;;;;10434870;28;20033;-82
2021/08/16 13:54:50;;;;;;;4.40;2.65;;;;;;;;;;10417016;28;20030;-81
2021/08/16 14:00:21;;;;;;;4.63;2.70;;;;;;;;;;10434713;28;20030;-84
2021/08/16 14:05:26;;;;;;;5.72;2.95;;;;;;;;;;10423147;28;20101;-81
2021/08/16 14:10:41;;;;;;;5.47;3.10;;;;;;;;;;10417884;28;20037;-82
2021/08/16 14:16:16;;;;;;;5.43;2.30;;;;;;;;;;10428670;28;20036;-81
2021/08/16 14:21:18;;;;;;;6.82;3.88;;;;;;;;;;10427079;28;20506;-83
2021/08/16 14:26:20;;;;;;;5.22;2.30;;;;;;;;;;10442499;28;20048;-81
2021/08/16 14:31:30;;;;;;;;;;;;;;;;;;10425787;28;20344;-82
2021/08/16 14:42:38;;;;;;;4.07;2.33;;;;;;;;;;10453934;28;20034;-82
2021/08/16 14:47:56;;;;;;;3.88;1.85;;;;;;;;;;10434625;28;20037;-82
2021/08/16 14:53:30;;;;;;;6.35;3.00;;;;;;;;;;10424175;28;20025;-82
2021/08/16 14:59:13;;;;;;;6.93;2.75;;;;;;;;;;10356237;28;20034;-81
2021/08/16 15:04:17;;;;;;;6.25;2.72;;;;;;;;;;10342895;28;20049;-84
2021/08/16 15:09:25;;;;;;;4.72;2.70;;;;;;;;;;10346356;28;20085;-84
2021/08/16 15:14:26;;;;;;;5.50;3.10;;;;;;;;;;10332198;28;20045;-82
2021/08/16 15:19:32;;;;;;;7.15;3.55;;;;;;;;;;10350064;28;20129;-82
2021/08/16 15:53:07;;;;;;;7.22;2.92;;;;;;;;;;10439842;28;20120;-83
2021/08/16 15:58:13;;;;;;;7.10;2.75;;;;;;;;;;10421333;28;20025;-84
2021/08/16 16:03:19;;;;;;;5.45;3.28;;;;;;;;;;10420569;28;20047;-84
2021/08/16 16:08:20;;;;;;;6.00;3.03;;;;;;;;;;10420606;28;20499;-84
2021/08/16 16:13:24;;;;;;;6.88;3.30;;;;;;;;;;10415182;28;20104;-84
2021/08/16 16:18:42;;;;;;;5.65;3.20;;;;;;;;;;10423707;28;20029;-87
2021/08/16 16:23:43;;;;;;;6.47;2.97;;;;;;;;;;10421975;28;20084;-85
2021/08/16 16:28:47;;;;;;;8.57;4.53;;;;;;;;;;10427665;28;20056;-83
2021/08/16 16:33:48;;;;;;;7.28;2.92;;;;;;;;;;10410892;28;20085;-83
2021/08/16 16:38:49;;;;;;;7.15;2.85;;;;;;;;;;10420477;28;20025;-82
2021/08/16 16:43:50;;;;;;;8.80;3.00;;;;;;;;;;10429847;28;20037;-83
2021/08/16 16:48:51;;;;;;;9.02;3.00;;;;;;;;;;10417179;28;20072;-83
2021/08/16 16:53:52;;;;;;;6.93;2.72;;;;;;;;;;10417134;28;20049;-82
2021/08/16 16:58:53;;;;;;;8.65;2.70;;;;;;;;;;10434762;28;20025;-82
2021/08/16 17:03:54;;;;;;;7.95;2.72;;;;;;;;;;10417615;28;20080;-82
2021/08/16 17:08:55;;;;;;;9.48;3.05;;;;;;;;;;10418247;28;20102;-84
2021/08/16 17:13:56;;;;;;;7.18;2.90;;;;;;;;;;10419813;28;20025;-82
2021/08/16 17:18:57;;;;;;;7.45;2.58;;;;;;;;;;10419072;28;20029;-82
2021/08/16 17:23:59;;;;;;;8.32;2.90;;;;;;;;;;10417270;28;20065;-82
2021/08/16 17:29:00;;;;;;;6.72;2.80;;;;;;;;;;10416679;28;20026;-82
2021/08/16 17:34:01;;;;;;;6.53;2.58;;;;;;;;;;10434263;28;20077;-82
2021/08/16 17:39:02;;;;;;;5.75;2.53;;;;;;;;;;10417354;28;20097;-85
2021/08/16 17:44:03;;;;;;;5.55;2.28;;;;;;;;;;10417869;28;20029;-83
2021/08/16 17:49:04;;;;;;;7.85;2.70;;;;;;;;;;10416180;28;20550;-81
2021/08/16 17:54:05;;;;;;;6.15;2.20;;;;;;;;;;10416717;28;20034;-81
2021/08/16 17:59:06;;;;;;;9.40;2.42;;;;;;;;;;10416953;28;20036;-81
2021/08/16 18:04:07;;;;;;;5.63;2.15;;;;;;;;;;10418060;28;20088;-81
2021/08/16 18:09:08;;;;;;;7.40;2.10;;;;;;;;;;10417731;28;20030;-81
2021/08/16 18:14:09;;;;;;;;;;;;;;;;;;10420128;28;20083;-82
2021/08/16 18:19:10;;;;;;;8.38;2.45;;;;;;;;;;10417432;28;19913;-81
2021/08/16 18:24:11;;;;;;;;;;;;;;;;;;10415311;28;20097;-81
2021/08/16 18:29:12;;;;;;;4.78;2.10;;;;;;;;;;10414826;28;19905;-81
2021/08/16 18:34:13;;;;;;;;;;;;;;;;;;10415348;28;20096;-81
2021/08/16 18:39:14;;;;;;;5.75;2.47;;;;;;;;;;10425096;28;19909;-82
2021/08/16 18:44:15;;;;;;;11.27;3.33;;;;;;;;;;10418287;28;20026;-81
2021/08/16 18:49:16;;;;;;;;;;;;;;;;;;10417947;28;20049;-81
2021/08/16 18:54:18;;;;;;;9.20;2.50;;;;;;;;;;10416325;28;19913;-82
2021/08/16 18:59:19;;;;;;;8.52;2.30;;;;;;;;;;10423466;28;20548;-81
2021/08/16 19:04:19;;;;;;;;;;;;;;;;;;10423761;28;20065;-82
2021/08/16 19:09:20;;;;;;;8.02;2.28;;;;;;;;;;10420749;28;20330;-82
2021/08/16 19:14:22;;;;;;;;;;;;;;;;;;10445269;28;20021;-82
2021/08/16 19:19:23;;;;;;;5.68;3.08;;;;;;;;;;10429076;28;19909;-82
2021/08/16 19:24:24;;;;;;;;;;;;;;;;;;10430197;28;20021;-82
2021/08/16 19:29:25;;;;;;;6.72;2.28;;;;;;;;;;10425828;28;19905;-81
2021/08/16 19:34:26;;;;;;;;;;;;;;;;;;10422011;28;20057;-82
2021/08/16 19:39:27;;;;;;;4.40;1.80;;;;;;;;;;10438843;28;20360;-82
2021/08/16 19:44:28;;;;;;;;;;;;;;;;;;10476439;23;20120;-86
2021/08/16 19:49:29;;;;;;;7.15;2.40;;;;;;;;;;10362156;28;19909;-86
2021/08/16 19:54:30;;;;;;;;;;;;;;;;;;10362953;28;20125;-86
2021/08/16 19:59:30;;;;;;;5.13;1.92;;;;;;;;;;10377864;28;19909;-86
2021/08/16 20:04:32;;;;;;;;;;;;;;;;;;10398415;28;20053;-86
2021/08/16 20:09:33;;;;;;;;;;;;;;;;;;10397796;28;19913;-86
2021/08/16 20:14:34;;;;;;;7.35;2.03;;;;;;;;;;10378067;28;19923;-87
